createdAt,value
2019-05-29T00:01:19.787Z,7.91
2019-05-29T00:03:45.552Z,7.93
2019-05-29T00:06:14.379Z,7.80
2019-05-29T00:08:42.688Z,7.73
2019-05-29T00:11:12.166Z,7.66
2019-05-29T00:13:40.932Z,7.66
2019-05-29T00:16:10.277Z,7.71
2019-05-29T00:18:38.634Z,7.71
2019-05-29T00:21:06.915Z,7.62
2019-05-29T00:23:35.198Z,7.62
2019-05-29T00:26:03.478Z,7.60
2019-05-29T00:28:31.740Z,7.47
2019-05-29T00:31:00.014Z,7.47
2019-05-29T00:33:28.299Z,7.43
2019-05-29T00:35:56.579Z,7.41
2019-05-29T00:38:24.833Z,7.51
2019-05-29T00:40:53.121Z,7.54
2019-05-29T00:43:21.535Z,7.53
2019-05-29T00:45:49.816Z,7.38
2019-05-29T00:48:18.150Z,7.25
2019-05-29T00:50:46.426Z,7.32
2019-05-29T00:53:14.697Z,7.28
2019-05-29T00:55:42.971Z,7.34
2019-05-29T00:58:11.264Z,7.26
2019-05-29T01:00:39.557Z,7.16
2019-05-29T01:03:07.852Z,7.22
2019-05-29T01:05:36.143Z,7.20
2019-05-29T01:08:04.401Z,7.16
2019-05-29T01:10:32.676Z,7.07
2019-05-29T01:13:00.952Z,7.07
2019-05-29T01:15:29.244Z,6.98
2019-05-29T01:17:57.527Z,6.64
2019-05-29T01:20:25.805Z,6.46
2019-05-29T01:22:54.080Z,6.35
2019-05-29T01:25:22.716Z,6.15
2019-05-29T01:27:51.007Z,6.07
2019-05-29T01:30:19.466Z,6.07
2019-05-29T01:32:47.695Z,6.10
2019-05-29T01:35:16.044Z,6.15
2019-05-29T01:37:44.317Z,6.16
2019-05-29T01:40:21.068Z,6.14
2019-05-29T01:42:42.674Z,6.13
2019-05-29T01:45:11.132Z,5.98
2019-05-29T01:47:39.397Z,5.92
2019-05-29T01:50:08.419Z,5.98
2019-05-29T01:52:36.716Z,6.04
2019-05-29T01:55:07.722Z,6.00
2019-05-29T01:57:36.011Z,6.00
2019-05-29T02:00:08.975Z,5.94
2019-05-29T02:02:37.238Z,5.92
2019-05-29T02:05:08.522Z,6.00
2019-05-29T02:07:36.786Z,6.08
2019-05-29T02:10:08.434Z,6.23
2019-05-29T02:12:36.721Z,6.40
2019-05-29T02:15:22.689Z,6.48
2019-05-29T02:17:37.112Z,6.47
2019-05-29T02:20:07.628Z,6.55
2019-05-29T02:22:35.917Z,6.58
2019-05-29T02:25:07.202Z,6.61
2019-05-29T02:27:35.476Z,6.63
2019-05-29T02:30:05.388Z,6.63
2019-05-29T02:32:33.668Z,6.63
2019-05-29T02:35:01.943Z,6.56
2019-05-29T02:37:30.224Z,6.56
2019-05-29T02:39:58.494Z,6.50
2019-05-29T02:42:27.133Z,6.45
2019-05-29T02:44:55.430Z,6.46
2019-05-29T02:47:23.727Z,6.45
2019-05-29T02:49:51.985Z,6.45
2019-05-29T02:52:21.853Z,6.38
2019-05-29T02:54:50.222Z,6.37
2019-05-29T02:57:18.479Z,6.41
2019-05-29T02:59:46.790Z,6.48
2019-05-29T03:02:15.079Z,6.47
2019-05-29T03:04:43.344Z,6.51
2019-05-29T03:07:11.636Z,6.41
2019-05-29T03:09:39.908Z,6.31
2019-05-29T03:12:08.189Z,6.37
2019-05-29T03:14:36.455Z,6.30
2019-05-29T03:17:04.817Z,6.28
2019-05-29T03:19:34.740Z,6.24
2019-05-29T03:22:03.232Z,6.37
2019-05-29T03:24:32.950Z,6.38
2019-05-29T03:27:01.644Z,6.32
2019-05-29T03:29:30.134Z,6.34
2019-05-29T03:31:58.732Z,6.24
2019-05-29T03:34:31.051Z,6.19
2019-05-29T03:36:56.991Z,6.19
2019-05-29T03:39:26.317Z,6.09
2019-05-29T03:41:54.721Z,6.04
2019-05-29T03:44:23.012Z,6.00
2019-05-29T03:46:51.279Z,5.92
2019-05-29T03:49:19.548Z,6.08
2019-05-29T03:51:47.816Z,6.03
2019-05-29T03:54:16.085Z,6.09
2019-05-29T03:56:44.374Z,6.09
2019-05-29T03:59:12.634Z,6.18
2019-05-29T04:01:40.915Z,6.19
2019-05-29T04:04:09.199Z,6.16
2019-05-29T04:06:37.690Z,6.29
2019-05-29T04:09:06.597Z,6.39
2019-05-29T04:11:37.660Z,6.45
2019-05-29T04:14:06.191Z,6.50
2019-05-29T04:16:54.023Z,6.67
2019-05-29T04:19:04.515Z,6.81
2019-05-29T04:21:34.198Z,6.85
2019-05-29T04:24:07.183Z,6.99
2019-05-29T04:26:38.638Z,7.03
2019-05-29T04:29:06.910Z,7.05
2019-05-29T04:31:36.520Z,7.14
2019-05-29T04:34:05.286Z,7.23
2019-05-29T04:36:34.855Z,7.35
2019-05-29T04:39:04.461Z,7.43
2019-05-29T04:41:32.856Z,7.61
2019-05-29T04:44:01.071Z,7.77
2019-05-29T04:46:30.020Z,7.82
2019-05-29T04:48:58.698Z,7.86
2019-05-29T04:51:26.958Z,8.05
2019-05-29T04:53:55.251Z,8.28
2019-05-29T04:56:23.522Z,8.47
2019-05-29T04:58:51.828Z,8.71
2019-05-29T05:01:20.113Z,8.88
2019-05-29T05:03:48.400Z,8.86
2019-05-29T05:06:16.676Z,9.14
2019-05-29T05:08:44.951Z,9.41
2019-05-29T05:11:13.338Z,9.70
2019-05-29T05:13:42.297Z,9.74
2019-05-29T05:16:10.575Z,9.59
2019-05-29T05:18:40.053Z,9.56
2019-05-29T05:21:08.480Z,9.74
2019-05-29T05:23:36.741Z,9.58
2019-05-29T05:26:05.201Z,9.70
2019-05-29T05:28:34.330Z,9.93
2019-05-29T05:31:02.613Z,9.89
2019-05-29T05:33:30.877Z,10.10
2019-05-29T05:35:59.153Z,10.18
2019-05-29T05:38:27.418Z,10.14
2019-05-29T05:40:55.751Z,10.08
2019-05-29T05:43:24.702Z,10.35
2019-05-29T05:45:53.073Z,10.53
2019-05-29T05:48:21.359Z,10.52
2019-05-29T05:50:49.629Z,10.54
2019-05-29T05:53:17.913Z,10.61
2019-05-29T05:55:46.182Z,10.74
2019-05-29T05:58:14.465Z,10.81
2019-05-29T06:00:42.744Z,10.97
2019-05-29T06:03:11.026Z,11.01
2019-05-29T06:05:40.238Z,10.94
2019-05-29T06:08:08.553Z,10.68
2019-05-29T06:10:36.826Z,10.79
2019-05-29T06:13:05.366Z,10.61
2019-05-29T06:15:34.325Z,10.79
2019-05-29T06:18:19.786Z,11.01
2019-05-29T06:20:32.715Z,11.19
2019-05-29T06:23:00.952Z,11.15
2019-05-29T06:25:29.312Z,11.34
2019-05-29T06:27:57.590Z,11.43
2019-05-29T06:30:25.862Z,11.49
2019-05-29T06:32:54.154Z,11.56
2019-05-29T06:35:22.446Z,11.51
2019-05-29T06:37:50.714Z,11.10
2019-05-29T06:40:31.134Z,11.20
2019-05-29T06:42:59.406Z,11.41
2019-05-29T06:45:33.739Z,11.53
2019-05-29T06:48:05.034Z,11.79
2019-05-29T06:50:33.309Z,11.50
2019-05-29T06:53:01.591Z,11.28
2019-05-29T06:55:29.865Z,11.58
2019-05-29T06:57:58.135Z,11.42
2019-05-29T07:00:35.301Z,11.69
2019-05-29T07:02:56.402Z,11.79
2019-05-29T07:05:24.676Z,11.76
2019-05-29T07:07:52.942Z,11.94
2019-05-29T07:10:21.223Z,11.57
2019-05-29T07:12:49.497Z,11.75
2019-05-29T07:15:17.832Z,12.08
2019-05-29T07:17:46.702Z,12.36
2019-05-29T07:20:15.531Z,12.40
2019-05-29T07:22:45.061Z,12.06
2019-05-29T07:25:13.364Z,12.12
2019-05-29T07:27:42.821Z,11.81
2019-05-29T07:30:11.282Z,12.31
2019-05-29T07:32:40.924Z,12.19
2019-05-29T07:35:09.657Z,12.08
2019-05-29T07:37:37.935Z,11.63
2019-05-29T07:40:07.068Z,11.33
2019-05-29T07:42:35.361Z,11.50
2019-05-29T07:45:04.121Z,11.59
2019-05-29T07:47:32.392Z,11.96
2019-05-29T07:50:00.666Z,11.46
2019-05-29T07:52:29.224Z,11.62
2019-05-29T07:54:57.503Z,11.69
2019-05-29T07:57:25.839Z,11.73
2019-05-29T07:59:54.101Z,11.73
2019-05-29T08:02:22.394Z,11.74
2019-05-29T08:04:50.689Z,11.86
2019-05-29T08:07:18.962Z,11.81
2019-05-29T08:09:47.824Z,11.66
2019-05-29T08:12:16.827Z,11.74
2019-05-29T08:14:45.810Z,11.78
2019-05-29T08:17:14.194Z,11.72
2019-05-29T08:20:01.412Z,11.57
2019-05-29T08:22:12.483Z,11.64
2019-05-29T08:24:42.472Z,11.92
2019-05-29T08:27:10.914Z,12.02
2019-05-29T08:29:40.517Z,12.09
2019-05-29T08:32:08.824Z,11.91
2019-05-29T08:34:37.114Z,11.77
2019-05-29T08:37:07.455Z,11.92
2019-05-29T08:39:36.975Z,11.97
2019-05-29T08:42:22.002Z,11.92
2019-05-29T08:44:35.529Z,11.68
2019-05-29T08:47:10.173Z,11.67
2019-05-29T08:49:33.836Z,11.99
2019-05-29T08:52:11.552Z,12.06
2019-05-29T08:54:32.124Z,12.29
2019-05-29T08:57:00.425Z,12.21
2019-05-29T08:59:28.686Z,12.22
2019-05-29T09:01:56.957Z,12.53
2019-05-29T09:04:25.226Z,12.72
2019-05-29T09:06:53.670Z,12.74
2019-05-29T09:09:21.954Z,12.82
2019-05-29T09:11:53.759Z,12.94
2019-05-29T09:14:20.913Z,12.82
2019-05-29T09:16:49.294Z,12.84
2019-05-29T09:19:18.878Z,12.97
2019-05-29T09:21:47.598Z,12.95
2019-05-29T09:24:17.394Z,12.72
2019-05-29T09:26:46.658Z,12.86
2019-05-29T09:29:18.194Z,13.13
2019-05-29T09:31:44.988Z,13.30
2019-05-29T09:34:13.708Z,13.24
2019-05-29T09:36:43.328Z,13.38
2019-05-29T09:39:11.603Z,13.33
2019-05-29T09:41:39.902Z,13.39
2019-05-29T09:44:08.171Z,13.21
2019-05-29T09:46:37.402Z,13.37
2019-05-29T09:49:05.733Z,13.35
2019-05-29T09:51:34.008Z,13.29
2019-05-29T09:54:03.446Z,12.95
2019-05-29T09:56:31.848Z,12.72
2019-05-29T09:59:01.644Z,12.71
2019-05-29T10:01:30.145Z,12.74
2019-05-29T10:04:00.636Z,12.93
2019-05-29T10:06:28.435Z,12.99
2019-05-29T10:08:57.871Z,12.94
2019-05-29T10:11:26.269Z,13.52
2019-05-29T10:13:55.584Z,13.47
2019-05-29T10:16:24.657Z,13.57
2019-05-29T10:18:52.929Z,13.54
2019-05-29T10:21:38.158Z,13.30
2019-05-29T10:23:51.207Z,13.10
2019-05-29T10:26:19.473Z,13.21
2019-05-29T10:29:02.272Z,13.16
2019-05-29T10:31:17.756Z,13.24
2019-05-29T10:33:46.182Z,13.00
2019-05-29T10:36:14.487Z,12.70
2019-05-29T10:38:42.775Z,12.82
2019-05-29T10:41:11.064Z,12.98
2019-05-29T10:43:39.346Z,13.16
2019-05-29T10:46:07.627Z,13.33
2019-05-29T10:48:35.921Z,13.47
2019-05-29T10:51:04.172Z,13.49
2019-05-29T10:53:32.459Z,13.49
2019-05-29T10:56:00.766Z,13.55
2019-05-29T10:58:29.027Z,13.82
2019-05-29T11:00:57.304Z,14.06
2019-05-29T11:03:25.571Z,14.00
2019-05-29T11:05:53.874Z,14.02
2019-05-29T11:08:22.118Z,13.83
2019-05-29T11:10:50.396Z,13.83
2019-05-29T11:13:18.660Z,13.89
2019-05-29T11:15:46.928Z,13.69
2019-05-29T11:18:15.205Z,13.32
2019-05-29T11:20:43.485Z,13.45
2019-05-29T11:23:11.756Z,13.92
2019-05-29T11:25:40.037Z,14.04
2019-05-29T11:28:08.332Z,14.14
2019-05-29T11:30:36.605Z,14.02
2019-05-29T11:33:05.025Z,14.00
2019-05-29T11:35:33.310Z,13.79
2019-05-29T11:38:02.857Z,13.36
2019-05-29T11:40:31.509Z,13.34
2019-05-29T11:42:59.877Z,13.48
2019-05-29T11:45:28.152Z,13.32
2019-05-29T11:47:58.497Z,13.39
2019-05-29T11:50:26.498Z,13.32
2019-05-29T11:52:54.774Z,13.58
2019-05-29T11:55:23.043Z,13.90
2019-05-29T11:57:51.826Z,14.22
2019-05-29T12:00:21.294Z,14.15
2019-05-29T12:02:51.463Z,14.09
2019-05-29T12:05:20.080Z,14.33
2019-05-29T12:07:48.381Z,14.22
2019-05-29T12:10:16.975Z,14.00
2019-05-29T12:12:45.274Z,13.95
2019-05-29T12:15:16.328Z,14.08
2019-05-29T12:17:43.983Z,14.25
2019-05-29T12:20:26.925Z,13.94
2019-05-29T12:23:07.065Z,14.05
2019-05-29T12:25:12.511Z,14.21
2019-05-29T12:27:40.791Z,13.98
2019-05-29T12:30:11.085Z,13.99
2019-05-29T12:32:39.360Z,14.05
2019-05-29T12:35:08.099Z,14.06
2019-05-29T12:37:36.361Z,14.28
2019-05-29T12:40:08.917Z,14.35
2019-05-29T12:42:37.350Z,14.39
2019-05-29T12:45:09.768Z,14.44
2019-05-29T12:47:38.062Z,14.82
2019-05-29T12:50:08.979Z,14.79
2019-05-29T12:52:37.355Z,14.68
2019-05-29T12:55:07.455Z,14.28
2019-05-29T12:57:35.747Z,14.03
2019-05-29T13:00:09.495Z,14.13
2019-05-29T13:02:37.767Z,14.20
2019-05-29T13:05:16.260Z,14.18
2019-05-29T13:07:36.812Z,14.28
2019-05-29T13:10:08.774Z,14.35
2019-05-29T13:12:37.114Z,14.58
2019-05-29T13:15:12.866Z,15.09
2019-05-29T13:17:41.147Z,15.10
2019-05-29T13:20:20.965Z,15.18
2019-05-29T13:22:40.051Z,15.11
2019-05-29T13:25:12.253Z,15.25
2019-05-29T13:27:40.274Z,15.32
2019-05-29T13:30:10.239Z,15.55
2019-05-29T13:32:38.526Z,15.40
2019-05-29T13:35:07.249Z,15.82
2019-05-29T13:37:35.513Z,16.10
2019-05-29T13:40:08.573Z,16.37
2019-05-29T13:42:37.001Z,16.50
2019-05-29T13:45:16.587Z,16.30
2019-05-29T13:47:36.621Z,16.31
2019-05-29T13:50:11.935Z,15.89
2019-05-29T13:52:38.310Z,16.44
2019-05-29T13:55:08.184Z,16.82
2019-05-29T13:57:39.546Z,16.75
2019-05-29T14:00:31.645Z,15.69
2019-05-29T14:02:40.098Z,15.47
2019-05-29T14:05:09.501Z,16.09
2019-05-29T14:07:37.780Z,16.44
2019-05-29T14:10:07.771Z,16.57
2019-05-29T14:12:39.480Z,16.70
2019-05-29T14:15:10.092Z,16.70
2019-05-29T14:17:38.359Z,16.66
2019-05-29T14:20:08.968Z,16.92
2019-05-29T14:22:37.228Z,17.02
2019-05-29T14:25:07.483Z,16.75
2019-05-29T14:27:35.810Z,17.33
2019-05-29T14:30:08.423Z,16.99
2019-05-29T14:32:36.646Z,16.84
2019-05-29T14:35:10.447Z,16.53
2019-05-29T14:37:38.199Z,16.38
2019-05-29T14:40:07.909Z,16.36
2019-05-29T14:42:36.354Z,16.65
2019-05-29T14:45:08.215Z,16.98
2019-05-29T14:47:36.558Z,17.17
2019-05-29T14:50:08.909Z,17.12
2019-05-29T14:52:37.337Z,16.30
2019-05-29T14:55:06.740Z,16.24
2019-05-29T14:57:35.185Z,16.27
2019-05-29T15:00:22.244Z,16.61
2019-05-29T15:02:38.766Z,16.77
2019-05-29T15:05:07.888Z,16.62
2019-05-29T15:07:36.136Z,16.39
2019-05-29T15:10:12.886Z,16.78
2019-05-29T15:12:38.277Z,17.15
2019-05-29T15:15:08.838Z,17.27
2019-05-29T15:17:37.587Z,16.89
2019-05-29T15:20:09.863Z,16.73
2019-05-29T15:22:38.685Z,16.47
2019-05-29T15:25:15.565Z,16.82
2019-05-29T15:27:38.201Z,16.71
2019-05-29T15:30:08.761Z,16.85
2019-05-29T15:32:37.473Z,16.28
2019-05-29T15:35:11.026Z,16.05
2019-05-29T15:37:37.293Z,16.03
2019-05-29T15:40:08.848Z,16.22
2019-05-29T15:42:37.210Z,15.96
2019-05-29T15:45:07.628Z,15.94
2019-05-29T15:47:35.967Z,15.73
2019-05-29T15:50:11.104Z,15.83
2019-05-29T15:52:39.771Z,15.64
2019-05-29T15:55:27.435Z,15.53
2019-05-29T15:57:39.831Z,15.57
2019-05-29T16:00:13.585Z,15.43
2019-05-29T16:02:42.038Z,15.47
2019-05-29T16:05:11.244Z,15.33
2019-05-29T16:07:39.633Z,15.37
2019-05-29T16:12:50.172Z,15.59
2019-05-29T16:15:19.462Z,15.16
2019-05-29T16:17:48.664Z,15.31
2019-05-29T16:20:18.599Z,15.31
2019-05-29T16:22:47.289Z,15.43
2019-05-29T16:25:55.607Z,15.45
2019-05-29T16:28:23.891Z,15.30
2019-05-29T16:30:52.226Z,15.30
2019-05-29T16:33:20.461Z,15.18
2019-05-29T16:35:48.753Z,15.19
2019-05-29T16:38:17.629Z,15.19
2019-05-29T16:43:26.075Z,15.01
2019-05-29T16:45:54.347Z,14.95
2019-05-29T16:48:22.937Z,15.00
2019-05-29T16:50:52.622Z,15.04
2019-05-29T16:53:21.077Z,15.05
2019-05-29T16:55:53.753Z,15.09
2019-05-29T16:58:19.851Z,14.90
2019-05-29T17:00:49.335Z,15.08
2019-05-29T17:03:17.748Z,15.09
2019-05-29T17:05:45.969Z,14.96
2019-05-29T17:08:14.238Z,15.08
2019-05-29T17:10:42.517Z,15.24
2019-05-29T17:13:10.790Z,15.15
2019-05-29T17:15:39.072Z,15.15
2019-05-29T17:18:07.353Z,14.94
2019-05-29T17:20:54.976Z,14.92
2019-05-29T17:23:23.271Z,14.68
2019-05-29T17:25:51.555Z,14.89
2019-05-29T17:28:23.228Z,14.83
2019-05-29T17:30:49.800Z,14.96
2019-05-29T17:33:58.113Z,14.89
2019-05-29T17:36:28.697Z,14.76
2019-05-29T17:38:56.528Z,14.68
2019-05-29T17:41:26.387Z,14.72
2019-05-29T17:43:54.771Z,14.86
2019-05-29T17:46:23.785Z,14.76
2019-05-29T17:48:53.035Z,14.79
2019-05-29T17:51:21.904Z,14.75
2019-05-29T17:56:36.609Z,14.75
2019-05-29T17:59:00.359Z,14.64
2019-05-29T18:01:30.849Z,14.59
2019-05-29T18:03:58.631Z,14.54
2019-05-29T18:06:26.930Z,14.67
2019-05-29T18:08:55.241Z,14.81
2019-05-29T18:11:23.510Z,14.78
2019-05-29T18:13:51.782Z,14.62
2019-05-29T18:16:21.385Z,14.57
2019-05-29T18:18:50.156Z,14.38
2019-05-29T18:21:19.569Z,14.37
2019-05-29T18:23:48.432Z,14.30
2019-05-29T18:26:17.887Z,14.26
2019-05-29T18:28:46.952Z,14.16
2019-05-29T18:31:15.221Z,14.06
2019-05-29T18:33:43.504Z,13.96
2019-05-29T18:36:11.767Z,13.96
2019-05-29T18:38:40.042Z,13.83
2019-05-29T18:41:08.324Z,13.78
2019-05-29T18:43:36.658Z,13.72
2019-05-29T18:46:05.009Z,13.79
2019-05-29T18:48:33.273Z,13.71
2019-05-29T18:51:01.544Z,13.68
2019-05-29T18:53:29.824Z,13.50
2019-05-29T18:55:58.099Z,13.36
2019-05-29T18:58:26.373Z,13.36
2019-05-29T19:00:54.813Z,13.24
2019-05-29T19:03:23.501Z,13.26
2019-05-29T19:05:53.116Z,13.22
2019-05-29T19:08:21.681Z,13.03
2019-05-29T19:10:51.396Z,12.95
2019-05-29T19:13:19.670Z,12.88
2019-05-29T19:15:48.013Z,12.82
2019-05-29T19:18:16.352Z,12.64
2019-05-29T19:20:44.576Z,12.51
2019-05-29T19:23:12.851Z,12.41
2019-05-29T19:25:41.203Z,12.24
2019-05-29T19:28:09.470Z,12.15
2019-05-29T19:30:37.759Z,12.05
2019-05-29T19:33:06.048Z,11.96
2019-05-29T19:35:34.326Z,11.90
2019-05-29T19:38:02.750Z,11.82
2019-05-29T19:40:32.293Z,11.78
2019-05-29T19:43:01.095Z,11.63
2019-05-29T19:45:30.527Z,11.53
2019-05-29T19:47:59.380Z,11.47
2019-05-29T19:50:28.552Z,11.47
2019-05-29T19:52:57.664Z,11.40
2019-05-29T19:55:30.219Z,11.28
2019-05-29T19:57:56.692Z,11.14
2019-05-29T20:00:26.105Z,11.03
2019-05-29T20:02:54.298Z,10.89
2019-05-29T20:05:22.592Z,10.81
2019-05-29T20:07:50.866Z,10.73
2019-05-29T20:10:19.141Z,10.55
2019-05-29T20:13:06.757Z,10.43
2019-05-29T20:15:36.074Z,10.43
2019-05-29T20:18:05.208Z,10.41
2019-05-29T20:20:34.516Z,10.36
2019-05-29T20:23:02.812Z,10.26
2019-05-29T20:25:31.096Z,10.24
2019-05-29T20:28:06.336Z,10.24
2019-05-29T20:33:08.413Z,10.18
2019-05-29T20:35:36.939Z,10.18
2019-05-29T20:38:06.664Z,10.14
2019-05-29T20:40:35.207Z,9.80
2019-05-29T20:43:03.471Z,9.54
2019-05-29T20:45:31.751Z,9.49
2019-05-29T20:48:00.060Z,9.52
2019-05-29T20:50:28.350Z,9.49
2019-05-29T20:52:56.611Z,9.51
2019-05-29T20:55:24.873Z,9.60
2019-05-29T20:57:53.150Z,9.59
2019-05-29T21:00:21.658Z,9.45
2019-05-29T21:02:49.944Z,9.51
2019-05-29T21:05:18.342Z,9.38
2019-05-29T21:07:46.602Z,9.24
2019-05-29T21:10:14.939Z,9.13
2019-05-29T21:12:47.300Z,9.17
2019-05-29T21:15:13.248Z,9.05
2019-05-29T21:17:42.105Z,8.94
2019-05-29T21:23:13.262Z,8.87
2019-05-29T21:25:42.824Z,8.81
2019-05-29T21:28:11.567Z,8.75
2019-05-29T21:30:39.821Z,8.73
2019-05-29T21:33:08.112Z,8.72
2019-05-29T21:35:36.380Z,8.68
2019-05-29T21:38:04.711Z,8.66
2019-05-29T21:40:32.991Z,8.74
2019-05-29T21:43:01.255Z,8.82
2019-05-29T21:45:29.545Z,8.77
2019-05-29T21:47:57.809Z,8.76
2019-05-29T21:50:26.065Z,8.87
2019-05-29T21:52:54.336Z,8.89
2019-05-29T21:55:22.594Z,8.95
2019-05-29T21:57:50.869Z,9.06
2019-05-29T22:00:59.180Z,9.14
2019-05-29T22:03:27.608Z,9.43
2019-05-29T22:05:55.906Z,9.59
2019-05-29T22:08:24.174Z,9.65
2019-05-29T22:10:53.420Z,9.75
2019-05-29T22:13:22.596Z,9.78
2019-05-29T22:15:50.867Z,9.87
2019-05-29T22:18:19.147Z,9.98
2019-05-29T22:20:47.427Z,10.07
2019-05-29T22:23:15.685Z,10.17
2019-05-29T22:25:43.960Z,10.17
2019-05-29T22:28:12.234Z,10.17
2019-05-29T22:30:40.505Z,10.15
2019-05-29T22:33:08.775Z,10.09
2019-05-29T22:35:37.045Z,10.15
2019-05-29T22:38:05.323Z,10.17
2019-05-29T22:40:33.591Z,10.24
2019-05-29T22:43:02.558Z,10.23
2019-05-29T22:45:30.831Z,10.26
2019-05-29T22:48:18.460Z,10.22
2019-05-29T22:50:46.749Z,10.22
2019-05-29T22:53:15.013Z,10.24
2019-05-29T22:55:43.282Z,10.14
2019-05-29T22:58:11.561Z,10.08
2019-05-29T23:00:39.828Z,10.09
2019-05-29T23:03:08.103Z,10.09
2019-05-29T23:05:36.365Z,10.05
2019-05-29T23:08:04.721Z,10.07
2019-05-29T23:10:32.979Z,10.05
2019-05-29T23:13:05.451Z,10.09
2019-05-29T23:15:31.251Z,10.07
2019-05-29T23:18:00.685Z,10.10
2019-05-29T23:20:42.766Z,10.09
2019-05-29T23:23:11.023Z,10.03
2019-05-29T23:25:39.304Z,10.08
2019-05-29T23:28:07.578Z,10.05
2019-05-29T23:30:35.862Z,10.07
2019-05-29T23:33:04.158Z,10.04
2019-05-29T23:35:32.435Z,10.09
2019-05-29T23:38:01.315Z,10.01
2019-05-29T23:40:30.763Z,10.01
2019-05-29T23:42:59.432Z,10.12
2019-05-29T23:45:28.975Z,10.13
2019-05-29T23:47:57.662Z,10.11
2019-05-29T23:50:27.252Z,10.13
2019-05-29T23:53:29.606Z,10.18
2019-05-29T23:55:57.891Z,10.02
2019-05-29T23:58:26.168Z,10.07
